Taylor Mines, Kentucky
Current Conditions -  °F | °C
As of 4:35 PM on Sunday 21 Dec 2014 (Local Time) from K2I0 Reporting Station
Haze Haze  
Wind Chill: 40°   Ceiling: Unl
Heat Index: 43°   Visibility: 5mi
Dew Point: 31°   Wind: 5mph
Humidity: 63%   Direction: 110°ESE
Pressure: 30.09"   Gusts: NA
Location:  37.3559°N, 86.8747°W
Report Text: K2I0 212235Z AUTO 11004KT 5SM HZ CLR 06/00 A3009 RMK AO2 T00611005
Loading
Personal Weather Stations






























Interactive Weather Map New forecast layout! Learn more

10-Day Weather Forecast

Advertisements
Track Severe Weather on mobile